sensor_id;sensor_type;location;lat;lon;timestamp;pressure;altitude;pressure_sealevel;temperature;humidity
65718;BME280;52445;52.466;-1.016;2023-03-23T00:02:28;97870.78;;;9.87;71.36
65718;BME280;52445;52.466;-1.016;2023-03-23T00:04:54;97876.09;;;9.84;71.26
65718;BME280;52445;52.466;-1.016;2023-03-23T00:07:21;97884.84;;;9.80;70.98
65718;BME280;52445;52.466;-1.016;2023-03-23T00:09:48;97890.84;;;9.81;71.66
65718;BME280;52445;52.466;-1.016;2023-03-23T00:12:20;97889.94;;;9.82;71.33
65718;BME280;52445;52.466;-1.016;2023-03-23T00:14:45;97892.66;;;9.79;71.78
65718;BME280;52445;52.466;-1.016;2023-03-23T00:17:11;97895.28;;;9.77;71.49
65718;BME280;52445;52.466;-1.016;2023-03-23T00:19:40;97900.28;;;9.82;71.96
65718;BME280;52445;52.466;-1.016;2023-03-23T00:22:10;97896.97;;;9.78;72.11
65718;BME280;52445;52.466;-1.016;2023-03-23T00:24:35;97911.44;;;9.84;72.10
65718;BME280;52445;52.466;-1.016;2023-03-23T00:27:02;97902.72;;;9.86;71.59
65718;BME280;52445;52.466;-1.016;2023-03-23T00:29:28;97895.00;;;9.85;71.81
65718;BME280;52445;52.466;-1.016;2023-03-23T00:31:53;97913.34;;;9.79;71.73
65718;BME280;52445;52.466;-1.016;2023-03-23T00:34:22;97914.22;;;9.77;72.13
65718;BME280;52445;52.466;-1.016;2023-03-23T00:36:52;97914.25;;;9.76;71.48
65718;BME280;52445;52.466;-1.016;2023-03-23T00:39:22;97913.63;;;9.69;71.88
65718;BME280;52445;52.466;-1.016;2023-03-23T00:41:50;97922.38;;;9.65;71.52
65718;BME280;52445;52.466;-1.016;2023-03-23T00:44:15;97917.44;;;9.59;71.85
65718;BME280;52445;52.466;-1.016;2023-03-23T00:46:46;97920.91;;;9.58;71.46
65718;BME280;52445;52.466;-1.016;2023-03-23T00:49:16;97927.88;;;9.56;71.72
65718;BME280;52445;52.466;-1.016;2023-03-23T00:51:42;97929.75;;;9.50;71.49
65718;BME280;52445;52.466;-1.016;2023-03-23T00:54:08;97938.50;;;9.46;72.18
65718;BME280;52445;52.466;-1.016;2023-03-23T00:56:34;97930.84;;;9.43;71.76
65718;BME280;52445;52.466;-1.016;2023-03-23T00:59:00;97936.16;;;9.38;71.63
65718;BME280;52445;52.466;-1.016;2023-03-23T01:01:25;97943.06;;;9.38;71.99
65718;BME280;52445;52.466;-1.016;2023-03-23T01:03:51;97960.38;;;9.36;71.45
65718;BME280;52445;52.466;-1.016;2023-03-23T01:06:18;97967.34;;;9.32;71.97
65718;BME280;52445;52.466;-1.016;2023-03-23T01:08:44;97980.44;;;9.28;71.76
65718;BME280;52445;52.466;-1.016;2023-03-23T01:11:13;97970.88;;;9.30;71.68
65718;BME280;52445;52.466;-1.016;2023-03-23T01:13:40;97977.88;;;9.26;71.46
65718;BME280;52445;52.466;-1.016;2023-03-23T01:16:07;97972.00;;;9.21;71.42
65718;BME280;52445;52.466;-1.016;2023-03-23T01:18:33;97967.00;;;9.16;71.42
65718;BME280;52445;52.466;-1.016;2023-03-23T01:21:04;97985.13;;;9.15;71.26
65718;BME280;52445;52.466;-1.016;2023-03-23T01:23:29;97982.66;;;9.10;71.09
65718;BME280;52445;52.466;-1.016;2023-03-23T01:25:55;97981.97;;;9.05;70.92
65718;BME280;52445;52.466;-1.016;2023-03-23T01:28:23;97988.84;;;9.04;70.92
65718;BME280;52445;52.466;-1.016;2023-03-23T01:30:48;97987.25;;;9.00;70.99
65718;BME280;52445;52.466;-1.016;2023-03-23T01:33:14;97990.81;;;8.96;70.56
65718;BME280;52445;52.466;-1.016;2023-03-23T01:35:39;97990.28;;;8.84;70.26
65718;BME280;52445;52.466;-1.016;2023-03-23T01:38:05;97998.78;;;8.88;70.52
65718;BME280;52445;52.466;-1.016;2023-03-23T01:40:30;98007.50;;;8.84;70.71
65718;BME280;52445;52.466;-1.016;2023-03-23T01:42:56;98006.09;;;8.73;71.07
65718;BME280;52445;52.466;-1.016;2023-03-23T01:48:06;98014.81;;;8.69;70.93
65718;BME280;52445;52.466;-1.016;2023-03-23T01:50:37;98010.66;;;8.64;70.44
65718;BME280;52445;52.466;-1.016;2023-03-23T01:53:07;98027.16;;;8.58;70.47
65718;BME280;52445;52.466;-1.016;2023-03-23T01:55:35;98022.81;;;8.58;71.03
65718;BME280;52445;52.466;-1.016;2023-03-23T01:58:02;98023.75;;;8.56;70.50
65718;BME280;52445;52.466;-1.016;2023-03-23T02:00:29;98028.16;;;8.52;70.10
65718;BME280;52445;52.466;-1.016;2023-03-23T02:02:55;98024.81;;;8.47;70.76
65718;BME280;52445;52.466;-1.016;2023-03-23T02:05:40;98027.53;;;8.42;70.50
65718;BME280;52445;52.466;-1.016;2023-03-23T02:08:07;98034.47;;;8.40;69.90
65718;BME280;52445;52.466;-1.016;2023-03-23T02:10:35;98039.63;;;8.40;70.55
65718;BME280;52445;52.466;-1.016;2023-03-23T02:13:03;98048.41;;;8.33;70.43
65718;BME280;52445;52.466;-1.016;2023-03-23T02:26:50;98059.19;;;8.14;69.62
65718;BME280;52445;52.466;-1.016;2023-03-23T02:34:53;98062.50;;;8.53;69.07
65718;BME280;52445;52.466;-1.016;2023-03-23T02:37:45;98066.88;;;8.16;69.97
65718;BME280;52445;52.466;-1.016;2023-03-23T02:42:53;98073.13;;;8.07;70.52
65718;BME280;52445;52.466;-1.016;2023-03-23T02:45:21;98064.56;;;8.05;70.27
65718;BME280;52445;52.466;-1.016;2023-03-23T02:47:51;98062.97;;;8.01;70.18
65718;BME280;52445;52.466;-1.016;2023-03-23T02:50:20;98050.13;;;7.97;70.80
65718;BME280;52445;52.466;-1.016;2023-03-23T02:52:48;98060.50;;;7.94;70.59
65718;BME280;52445;52.466;-1.016;2023-03-23T02:55:16;98054.56;;;7.92;71.32
65718;BME280;52445;52.466;-1.016;2023-03-23T02:57:44;98056.31;;;7.90;70.27
65718;BME280;52445;52.466;-1.016;2023-03-23T03:00:14;98058.09;;;7.88;71.30
65718;BME280;52445;52.466;-1.016;2023-03-23T03:02:43;98060.75;;;7.85;70.70
65718;BME280;52445;52.466;-1.016;2023-03-23T03:07:55;98071.16;;;7.80;70.35
65718;BME280;52445;52.466;-1.016;2023-03-23T03:15:59;98084.13;;;7.76;70.88
65718;BME280;52445;52.466;-1.016;2023-03-23T03:18:32;98077.38;;;7.71;71.95
65718;BME280;52445;52.466;-1.016;2023-03-23T03:21:04;98078.22;;;7.72;71.22
65718;BME280;52445;52.466;-1.016;2023-03-23T03:23:33;98080.81;;;7.72;71.16
65718;BME280;52445;52.466;-1.016;2023-03-23T03:26:02;98079.13;;;7.71;70.50
65718;BME280;52445;52.466;-1.016;2023-03-23T03:28:31;98088.63;;;7.67;72.27
65718;BME280;52445;52.466;-1.016;2023-03-23T03:30:59;98082.69;;;7.65;71.91
65718;BME280;52445;52.466;-1.016;2023-03-23T03:33:28;98094.69;;;7.65;72.13
65718;BME280;52445;52.466;-1.016;2023-03-23T03:35:59;98084.34;;;7.66;71.97
65718;BME280;52445;52.466;-1.016;2023-03-23T03:38:26;98087.81;;;7.65;72.05
65718;BME280;52445;52.466;-1.016;2023-03-23T03:40:55;98091.28;;;7.64;72.62
65718;BME280;52445;52.466;-1.016;2023-03-23T03:43:21;98087.88;;;7.62;72.17
65718;BME280;52445;52.466;-1.016;2023-03-23T03:45:47;98091.34;;;7.61;71.17
65718;BME280;52445;52.466;-1.016;2023-03-23T03:48:12;98085.38;;;7.59;71.35
65718;BME280;52445;52.466;-1.016;2023-03-23T03:50:38;98084.59;;;7.57;72.33
65718;BME280;52445;52.466;-1.016;2023-03-23T03:53:04;98095.72;;;7.57;71.38
65718;BME280;52445;52.466;-1.016;2023-03-23T03:55:31;98094.94;;;7.54;72.00
65718;BME280;52445;52.466;-1.016;2023-03-23T03:58:01;98088.09;;;7.53;71.56
65718;BME280;52445;52.466;-1.016;2023-03-23T04:00:28;98087.25;;;7.52;72.53
65718;BME280;52445;52.466;-1.016;2023-03-23T04:02:53;98089.84;;;7.51;71.55
65718;BME280;52445;52.466;-1.016;2023-03-23T04:05:21;98094.25;;;7.47;72.78
65718;BME280;52445;52.466;-1.016;2023-03-23T04:07:48;98088.19;;;7.48;72.45
65718;BME280;52445;52.466;-1.016;2023-03-23T04:10:17;98090.78;;;7.48;72.50
65718;BME280;52445;52.466;-1.016;2023-03-23T04:12:45;98092.53;;;7.46;72.21
65718;BME280;52445;52.466;-1.016;2023-03-23T04:15:11;98087.38;;;7.46;72.19
65718;BME280;52445;52.466;-1.016;2023-03-23T04:17:37;98096.84;;;7.45;72.60
65718;BME280;52445;52.466;-1.016;2023-03-23T04:20:03;98090.91;;;7.40;71.71
65718;BME280;52445;52.466;-1.016;2023-03-23T04:22:33;98097.13;;;7.33;72.88
65718;BME280;52445;52.466;-1.016;2023-03-23T04:25:00;98089.53;;;7.25;72.70
65718;BME280;52445;52.466;-1.016;2023-03-23T04:27:29;98099.91;;;7.20;71.98
65718;BME280;52445;52.466;-1.016;2023-03-23T04:29:55;98100.81;;;7.19;72.73
65718;BME280;52445;52.466;-1.016;2023-03-23T04:32:23;98107.78;;;7.14;72.48
65718;BME280;52445;52.466;-1.016;2023-03-23T04:34:50;98106.91;;;7.15;73.09
65718;BME280;52445;52.466;-1.016;2023-03-23T04:37:16;98118.13;;;7.11;71.94
65718;BME280;52445;52.466;-1.016;2023-03-23T04:39:41;98113.00;;;7.11;71.91
65718;BME280;52445;52.466;-1.016;2023-03-23T04:42:10;98113.00;;;7.11;72.49
65718;BME280;52445;52.466;-1.016;2023-03-23T04:44:36;98112.09;;;7.12;72.99
65718;BME280;52445;52.466;-1.016;2023-03-23T04:47:02;98113.88;;;7.10;72.80
65718;BME280;52445;52.466;-1.016;2023-03-23T04:49:27;98107.91;;;7.08;73.28
65718;BME280;52445;52.466;-1.016;2023-03-23T04:51:55;98107.03;;;7.07;73.26
65718;BME280;52445;52.466;-1.016;2023-03-23T04:54:22;98114.00;;;7.02;73.39
65718;BME280;52445;52.466;-1.016;2023-03-23T04:56:47;98120.00;;;7.03;72.54
65718;BME280;52445;52.466;-1.016;2023-03-23T04:59:13;98126.06;;;7.00;73.42
65718;BME280;52445;52.466;-1.016;2023-03-23T05:01:40;98131.25;;;6.99;73.52
65718;BME280;52445;52.466;-1.016;2023-03-23T05:04:11;98126.97;;;6.98;72.20
65718;BME280;52445;52.466;-1.016;2023-03-23T05:06:38;98123.59;;;6.96;72.95
65718;BME280;52445;52.466;-1.016;2023-03-23T05:09:03;98128.72;;;6.96;73.18
65718;BME280;52445;52.466;-1.016;2023-03-23T05:11:30;98132.19;;;6.94;72.60
65718;BME280;52445;52.466;-1.016;2023-03-23T05:13:55;98130.47;;;6.93;72.17
65718;BME280;52445;52.466;-1.016;2023-03-23T05:16:21;98133.94;;;6.92;72.86
65718;BME280;52445;52.466;-1.016;2023-03-23T05:18:46;98131.47;;;6.86;73.58
65718;BME280;52445;52.466;-1.016;2023-03-23T05:21:13;98132.34;;;6.85;72.17
65718;BME280;52445;52.466;-1.016;2023-03-23T05:23:39;98134.88;;;6.87;72.90
65718;BME280;52445;52.466;-1.016;2023-03-23T05:26:05;98127.25;;;6.82;72.50
65718;BME280;52445;52.466;-1.016;2023-03-23T05:28:31;98127.38;;;6.76;73.80
65718;BME280;52445;52.466;-1.016;2023-03-23T05:30:57;98126.44;;;6.80;72.47
65718;BME280;52445;52.466;-1.016;2023-03-23T05:33:23;98125.56;;;6.81;72.71
65718;BME280;52445;52.466;-1.016;2023-03-23T05:35:48;98131.59;;;6.80;72.24
65718;BME280;52445;52.466;-1.016;2023-03-23T05:38:15;98132.41;;;6.80;72.15
65718;BME280;52445;52.466;-1.016;2023-03-23T05:40:41;98124.81;;;6.76;73.14
65718;BME280;52445;52.466;-1.016;2023-03-23T05:43:08;98132.47;;;6.79;72.17
65718;BME280;52445;52.466;-1.016;2023-03-23T05:45:33;98138.47;;;6.78;73.00
65718;BME280;52445;52.466;-1.016;2023-03-23T05:48:00;98140.25;;;6.76;73.31
65718;BME280;52445;52.466;-1.016;2023-03-23T05:50:26;98136.03;;;6.72;73.27
65718;BME280;52445;52.466;-1.016;2023-03-23T05:52:54;98142.88;;;6.73;72.53
65718;BME280;52445;52.466;-1.016;2023-03-23T05:55:20;98145.47;;;6.69;72.34
65718;BME280;52445;52.466;-1.016;2023-03-23T05:57:46;98142.91;;;6.69;72.33
65718;BME280;52445;52.466;-1.016;2023-03-23T06:00:12;98136.06;;;6.68;73.27
65718;BME280;52445;52.466;-1.016;2023-03-23T06:02:39;98136.13;;;6.65;73.54
65718;BME280;52445;52.466;-1.016;2023-03-23T06:05:10;98137.91;;;6.62;73.54
65718;BME280;52445;52.466;-1.016;2023-03-23T06:07:36;98135.31;;;6.63;73.83
65718;BME280;52445;52.466;-1.016;2023-03-23T06:10:04;98131.03;;;6.62;73.08
65718;BME280;52445;52.466;-1.016;2023-03-23T06:12:30;98136.19;;;6.61;72.54
65718;BME280;52445;52.466;-1.016;2023-03-23T06:14:56;98131.91;;;6.61;74.22
65718;BME280;52445;52.466;-1.016;2023-03-23T06:17:22;98129.34;;;6.61;73.52
65718;BME280;52445;52.466;-1.016;2023-03-23T06:19:47;98132.75;;;6.63;73.10
65718;BME280;52445;52.466;-1.016;2023-03-23T06:22:16;98128.47;;;6.62;73.26
65718;BME280;52445;52.466;-1.016;2023-03-23T06:24:41;98119.94;;;6.60;74.25
65718;BME280;52445;52.466;-1.016;2023-03-23T06:27:07;98123.34;;;6.61;73.25
65718;BME280;52445;52.466;-1.016;2023-03-23T06:29:34;98122.41;;;6.65;74.14
65718;BME280;52445;52.466;-1.016;2023-03-23T06:32:02;98125.06;;;6.62;74.32
65718;BME280;52445;52.466;-1.016;2023-03-23T06:34:29;98123.25;;;6.65;73.14
65718;BME280;52445;52.466;-1.016;2023-03-23T06:36:55;98122.31;;;6.69;72.72
65718;BME280;52445;52.466;-1.016;2023-03-23T06:39:21;98117.22;;;6.66;73.38
65718;BME280;52445;52.466;-1.016;2023-03-23T06:41:47;98116.28;;;6.72;72.66
65718;BME280;52445;52.466;-1.016;2023-03-23T06:44:13;98130.84;;;6.75;72.70
65718;BME280;52445;52.466;-1.016;2023-03-23T06:46:40;98124.69;;;6.80;73.82
65718;BME280;52445;52.466;-1.016;2023-03-23T06:49:07;98122.19;;;6.79;73.29
65718;BME280;52445;52.466;-1.016;2023-03-23T06:51:32;98121.13;;;6.88;72.64
65718;BME280;52445;52.466;-1.016;2023-03-23T06:53:58;98127.09;;;6.91;73.20
65718;BME280;52445;52.466;-1.016;2023-03-23T06:56:24;98132.97;;;6.98;72.69
65718;BME280;52445;52.466;-1.016;2023-03-23T06:58:50;98138.06;;;7.01;74.10
65718;BME280;52445;52.466;-1.016;2023-03-23T07:01:16;98136.19;;;7.10;72.98
65718;BME280;52445;52.466;-1.016;2023-03-23T07:03:42;98142.06;;;7.16;72.86
65718;BME280;52445;52.466;-1.016;2023-03-23T07:06:08;98131.59;;;7.26;73.68
65718;BME280;52445;52.466;-1.016;2023-03-23T07:08:34;98128.78;;;7.37;73.49
65718;BME280;52445;52.466;-1.016;2023-03-23T07:11:00;98130.31;;;7.47;72.62
65718;BME280;52445;52.466;-1.016;2023-03-23T07:13:26;98132.66;;;7.58;72.48
65718;BME280;52445;52.466;-1.016;2023-03-23T07:15:52;98134.16;;;7.68;73.58
65718;BME280;52445;52.466;-1.016;2023-03-23T07:18:18;98136.47;;;7.79;73.59
65718;BME280;52445;52.466;-1.016;2023-03-23T07:20:50;98134.50;;;7.91;72.63
65718;BME280;52445;52.466;-1.016;2023-03-23T07:23:17;98136.91;;;7.98;72.28
65718;BME280;52445;52.466;-1.016;2023-03-23T07:25:43;98128.22;;;8.03;73.40
65718;BME280;52445;52.466;-1.016;2023-03-23T07:28:10;98128.06;;;8.09;73.40
65718;BME280;52445;52.466;-1.016;2023-03-23T07:30:36;98130.56;;;8.14;72.02
65718;BME280;52445;52.466;-1.016;2023-03-23T07:33:05;98118.72;;;8.40;72.62
65718;BME280;52445;52.466;-1.016;2023-03-23T07:35:31;98113.47;;;9.11;72.20
65718;BME280;52445;52.466;-1.016;2023-03-23T07:37:56;98121.47;;;9.92;71.33
65718;BME280;52445;52.466;-1.016;2023-03-23T07:40:22;98119.41;;;10.58;69.60
65718;BME280;52445;52.466;-1.016;2023-03-23T07:42:53;98118.16;;;11.19;67.56
65718;BME280;52445;52.466;-1.016;2023-03-23T07:45:19;98117.16;;;11.69;67.55
65718;BME280;52445;52.466;-1.016;2023-03-23T07:47:45;98115.69;;;12.08;66.25
65718;BME280;52445;52.466;-1.016;2023-03-23T07:50:10;98113.94;;;12.52;64.91
65718;BME280;52445;52.466;-1.016;2023-03-23T07:52:37;98116.81;;;12.67;63.97
65718;BME280;52445;52.466;-1.016;2023-03-23T07:55:04;98108.47;;;12.79;62.99
65718;BME280;52445;52.466;-1.016;2023-03-23T07:57:30;98107.94;;;12.92;62.96
65718;BME280;52445;52.466;-1.016;2023-03-23T07:59:57;98111.53;;;13.08;62.63
65718;BME280;52445;52.466;-1.016;2023-03-23T08:02:24;98100.31;;;13.27;62.90
65718;BME280;52445;52.466;-1.016;2023-03-23T08:04:50;98109.75;;;13.68;62.55
65718;BME280;52445;52.466;-1.016;2023-03-23T08:07:17;98115.47;;;14.13;61.69
65718;BME280;52445;52.466;-1.016;2023-03-23T08:09:44;98102.06;;;14.57;60.81
65718;BME280;52445;52.466;-1.016;2023-03-23T08:12:10;98112.03;;;15.01;59.39
65718;BME280;52445;52.466;-1.016;2023-03-23T08:14:35;98115.63;;;15.49;58.84
65718;BME280;52445;52.466;-1.016;2023-03-23T08:17:01;98121.84;;;15.94;58.29
65718;BME280;52445;52.466;-1.016;2023-03-23T08:19:26;98128.53;;;16.31;57.54
65718;BME280;52445;52.466;-1.016;2023-03-23T08:21:52;98114.88;;;16.42;55.57
65718;BME280;52445;52.466;-1.016;2023-03-23T08:24:19;98118.38;;;16.57;56.29
65718;BME280;52445;52.466;-1.016;2023-03-23T08:26:44;98116.56;;;16.43;55.33
65718;BME280;52445;52.466;-1.016;2023-03-23T08:29:10;98121.34;;;16.51;55.08
65718;BME280;52445;52.466;-1.016;2023-03-23T08:31:35;98113.00;;;16.75;55.34
65718;BME280;52445;52.466;-1.016;2023-03-23T08:34:03;98114.34;;;17.26;55.59
65718;BME280;52445;52.466;-1.016;2023-03-23T08:36:31;98103.78;;;17.84;55.06
65718;BME280;52445;52.466;-1.016;2023-03-23T08:38:57;98123.34;;;18.33;53.37
65718;BME280;52445;52.466;-1.016;2023-03-23T08:41:23;98114.25;;;18.52;51.77
65718;BME280;52445;52.466;-1.016;2023-03-23T08:43:49;98112.13;;;18.44;51.55
65718;BME280;52445;52.466;-1.016;2023-03-23T08:46:14;98114.50;;;18.21;51.16
65718;BME280;52445;52.466;-1.016;2023-03-23T08:48:40;98106.75;;;17.92;52.57
65718;BME280;52445;52.466;-1.016;2023-03-23T08:51:06;98105.81;;;17.79;53.21
65718;BME280;52445;52.466;-1.016;2023-03-23T08:53:32;98107.84;;;18.03;52.69
65718;BME280;52445;52.466;-1.016;2023-03-23T08:56:07;98107.06;;;17.73;51.49
65718;BME280;52445;52.466;-1.016;2023-03-23T08:58:34;98114.63;;;17.36;52.18
65718;BME280;52445;52.466;-1.016;2023-03-23T09:01:00;98106.13;;;17.17;53.16
65718;BME280;52445;52.466;-1.016;2023-03-23T09:03:26;98108.63;;;17.48;53.37
65718;BME280;52445;52.466;-1.016;2023-03-23T09:05:53;98110.09;;;17.94;53.63
65718;BME280;52445;52.466;-1.016;2023-03-23T09:08:19;98098.34;;;17.87;52.47
65718;BME280;52445;52.466;-1.016;2023-03-23T09:10:45;98105.38;;;18.14;52.34
65718;BME280;52445;52.466;-1.016;2023-03-23T09:13:11;98118.06;;;18.61;51.51
65718;BME280;52445;52.466;-1.016;2023-03-23T09:15:36;98104.47;;;19.08;51.35
65718;BME280;52445;52.466;-1.016;2023-03-23T09:18:02;98106.69;;;19.51;50.02
65718;BME280;52445;52.466;-1.016;2023-03-23T09:20:29;98105.34;;;19.83;50.13
65718;BME280;52445;52.466;-1.016;2023-03-23T09:22:56;98127.81;;;20.12;49.00
65718;BME280;52445;52.466;-1.016;2023-03-23T09:25:25;98116.88;;;19.81;48.08
65718;BME280;52445;52.466;-1.016;2023-03-23T09:27:55;98113.91;;;19.61;48.55
65718;BME280;52445;52.466;-1.016;2023-03-23T09:30:24;98119.84;;;19.38;48.33
65718;BME280;52445;52.466;-1.016;2023-03-23T09:32:52;98125.19;;;19.37;48.18
65718;BME280;52445;52.466;-1.016;2023-03-23T09:35:18;98111.13;;;19.38;47.64
65718;BME280;52445;52.466;-1.016;2023-03-23T09:37:47;98112.56;;;19.42;47.59
65718;BME280;52445;52.466;-1.016;2023-03-23T09:40:18;98129.16;;;19.56;48.39
65718;BME280;52445;52.466;-1.016;2023-03-23T09:48:32;98129.47;;;20.01;46.05
65718;BME280;52445;52.466;-1.016;2023-03-23T09:51:21;98133.91;;;20.12;47.16
65718;BME280;52445;52.466;-1.016;2023-03-23T09:53:51;98130.53;;;19.86;46.30
65718;BME280;52445;52.466;-1.016;2023-03-23T09:56:18;98142.28;;;19.56;46.92
65718;BME280;52445;52.466;-1.016;2023-03-23T10:01:32;98134.22;;;18.94;46.94
65718;BME280;52445;52.466;-1.016;2023-03-23T10:04:10;98135.78;;;18.70;47.56
65718;BME280;52445;52.466;-1.016;2023-03-23T10:06:37;98130.81;;;18.53;47.89
65718;BME280;52445;52.466;-1.016;2023-03-23T10:09:05;98140.66;;;18.36;48.59
65718;BME280;52445;52.466;-1.016;2023-03-23T10:14:39;98115.25;;;17.54;48.84
65718;BME280;52445;52.466;-1.016;2023-03-23T10:19:57;98140.88;;;17.19;48.95
65718;BME280;52445;52.466;-1.016;2023-03-23T10:22:39;98122.91;;;16.99;50.82
65718;BME280;52445;52.466;-1.016;2023-03-23T10:38:28;98136.59;;;15.96;53.05
65718;BME280;52445;52.466;-1.016;2023-03-23T10:41:00;98151.66;;;15.90;52.77
65718;BME280;52445;52.466;-1.016;2023-03-23T10:43:27;98145.28;;;15.96;53.57
65718;BME280;52445;52.466;-1.016;2023-03-23T10:46:00;98152.34;;;16.10;53.76
65718;BME280;52445;52.466;-1.016;2023-03-23T10:48:30;98142.41;;;16.17;53.77
65718;BME280;52445;52.466;-1.016;2023-03-23T10:51:00;98147.53;;;16.18;53.73
65718;BME280;52445;52.466;-1.016;2023-03-23T10:53:33;98164.31;;;16.14;53.38
65718;BME280;52445;52.466;-1.016;2023-03-23T10:56:00;98149.09;;;16.06;54.09
65718;BME280;52445;52.466;-1.016;2023-03-23T10:58:30;98144.44;;;16.12;54.16
65718;BME280;52445;52.466;-1.016;2023-03-23T11:00:58;98144.22;;;16.31;54.67
65718;BME280;52445;52.466;-1.016;2023-03-23T11:06:04;98151.47;;;16.87;53.27
65718;BME280;52445;52.466;-1.016;2023-03-23T11:08:34;98119.34;;;17.00;52.48
65718;BME280;52445;52.466;-1.016;2023-03-23T11:11:24;98138.66;;;16.82;52.20
65718;BME280;52445;52.466;-1.016;2023-03-23T11:13:56;98143.59;;;16.73;51.73
65718;BME280;52445;52.466;-1.016;2023-03-23T11:16:26;98153.41;;;16.69;52.11
65718;BME280;52445;52.466;-1.016;2023-03-23T11:18:53;98150.31;;;16.77;52.95
65718;BME280;52445;52.466;-1.016;2023-03-23T11:21:21;98148.88;;;16.87;53.22
65718;BME280;52445;52.466;-1.016;2023-03-23T11:23:54;98159.88;;;16.92;53.18
65718;BME280;52445;52.466;-1.016;2023-03-23T11:26:28;98141.53;;;16.78;52.60
65718;BME280;52445;52.466;-1.016;2023-03-23T11:31:36;98139.81;;;16.48;52.73
65718;BME280;52445;52.466;-1.016;2023-03-23T11:34:05;98142.81;;;16.56;53.27
65718;BME280;52445;52.466;-1.016;2023-03-23T11:36:37;98131.34;;;16.58;53.29
65718;BME280;52445;52.466;-1.016;2023-03-23T11:39:20;98134.91;;;16.57;51.82
65718;BME280;52445;52.466;-1.016;2023-03-23T11:41:46;98134.38;;;16.36;52.48
65718;BME280;52445;52.466;-1.016;2023-03-23T11:44:12;98135.09;;;16.38;52.49
65718;BME280;52445;52.466;-1.016;2023-03-23T11:58:29;98106.69;;;17.08;52.93
65718;BME280;52445;52.466;-1.016;2023-03-23T12:06:50;98116.88;;;17.27;49.92
65718;BME280;52445;52.466;-1.016;2023-03-23T12:12:13;98115.56;;;17.20;48.80
65718;BME280;52445;52.466;-1.016;2023-03-23T12:15:08;98111.50;;;16.85;50.79
65718;BME280;52445;52.466;-1.016;2023-03-23T12:25:45;98101.41;;;16.93;51.04
65718;BME280;52445;52.466;-1.016;2023-03-23T12:42:44;98089.25;;;16.78;51.43
65718;BME280;52445;52.466;-1.016;2023-03-23T12:48:00;98107.13;;;16.40;52.40
65718;BME280;52445;52.466;-1.016;2023-03-23T12:53:11;98136.31;;;15.84;54.66
65718;BME280;52445;52.466;-1.016;2023-03-23T12:58:26;98112.59;;;15.40;57.51
65718;BME280;52445;52.466;-1.016;2023-03-23T13:00:58;98098.03;;;15.36;58.32
65718;BME280;52445;52.466;-1.016;2023-03-23T13:06:17;98090.53;;;15.46;59.63
65718;BME280;52445;52.466;-1.016;2023-03-23T13:11:41;98088.53;;;15.67;59.25
65718;BME280;52445;52.466;-1.016;2023-03-23T13:14:35;98078.59;;;15.58;58.93
65718;BME280;52445;52.466;-1.016;2023-03-23T13:17:22;98081.47;;;15.53;59.21
65718;BME280;52445;52.466;-1.016;2023-03-23T13:28:18;98062.66;;;15.79;60.15
65718;BME280;52445;52.466;-1.016;2023-03-23T13:31:13;98058.22;;;15.81;60.46
65718;BME280;52445;52.466;-1.016;2023-03-23T13:33:43;98068.72;;;15.96;60.51
65718;BME280;52445;52.466;-1.016;2023-03-23T13:36:13;98062.41;;;16.00;59.78
65718;BME280;52445;52.466;-1.016;2023-03-23T13:38:46;98060.38;;;16.05;60.40
65718;BME280;52445;52.466;-1.016;2023-03-23T13:41:14;98051.63;;;16.06;59.45
65718;BME280;52445;52.466;-1.016;2023-03-23T13:43:42;98048.25;;;16.04;59.85
65718;BME280;52445;52.466;-1.016;2023-03-23T13:46:28;98041.84;;;15.93;58.97
65718;BME280;52445;52.466;-1.016;2023-03-23T13:51:58;98044.41;;;15.79;58.80
65718;BME280;52445;52.466;-1.016;2023-03-23T13:54:37;98042.88;;;15.75;59.59
65718;BME280;52445;52.466;-1.016;2023-03-23T13:57:24;98053.84;;;15.65;59.19
65718;BME280;52445;52.466;-1.016;2023-03-23T13:59:57;98048.81;;;15.62;59.02
65718;BME280;52445;52.466;-1.016;2023-03-23T14:02:34;98075.38;;;15.53;59.21
65718;BME280;52445;52.466;-1.016;2023-03-23T14:07:56;98080.28;;;15.27;59.64
65718;BME280;52445;52.466;-1.016;2023-03-23T14:10:31;98080.28;;;15.27;60.01
65718;BME280;52445;52.466;-1.016;2023-03-23T14:12:59;98080.84;;;15.32;60.93
65718;BME280;52445;52.466;-1.016;2023-03-23T14:15:29;98069.16;;;15.39;60.58
65718;BME280;52445;52.466;-1.016;2023-03-23T14:17:55;98056.72;;;15.45;60.33
65718;BME280;52445;52.466;-1.016;2023-03-23T14:20:37;98064.34;;;15.32;60.19
65718;BME280;52445;52.466;-1.016;2023-03-23T14:23:05;98062.44;;;15.35;60.29
65718;BME280;52445;52.466;-1.016;2023-03-23T14:25:31;98050.97;;;15.06;59.73
65718;BME280;52445;52.466;-1.016;2023-03-23T14:27:58;98045.41;;;15.12;59.98
65718;BME280;52445;52.466;-1.016;2023-03-23T14:30:26;98044.91;;;15.05;60.31
65718;BME280;52445;52.466;-1.016;2023-03-23T14:32:52;98041.38;;;15.06;60.38
65718;BME280;52445;52.466;-1.016;2023-03-23T14:37:55;98028.19;;;15.25;60.90
65718;BME280;52445;52.466;-1.016;2023-03-23T14:40:22;98022.13;;;15.25;60.18
65718;BME280;52445;52.466;-1.016;2023-03-23T14:42:50;98028.28;;;15.24;59.86
65718;BME280;52445;52.466;-1.016;2023-03-23T14:45:20;98013.31;;;15.11;59.78
65718;BME280;52445;52.466;-1.016;2023-03-23T14:47:51;98011.78;;;15.07;59.99
65718;BME280;52445;52.466;-1.016;2023-03-23T14:53:18;98015.66;;;15.00;59.83
65718;BME280;52445;52.466;-1.016;2023-03-23T14:55:46;98000.00;;;15.00;60.94
65718;BME280;52445;52.466;-1.016;2023-03-23T14:58:14;97991.00;;;14.89;61.06
65718;BME280;52445;52.466;-1.016;2023-03-23T15:00:46;98005.28;;;14.82;60.96
65718;BME280;52445;52.466;-1.016;2023-03-23T15:03:15;98003.69;;;14.62;61.14
65718;BME280;52445;52.466;-1.016;2023-03-23T15:05:46;97998.56;;;14.60;61.57
65718;BME280;52445;52.466;-1.016;2023-03-23T15:08:18;98005.25;;;14.48;61.76
65718;BME280;52445;52.466;-1.016;2023-03-23T15:10:53;98004.59;;;14.45;62.24
65718;BME280;52445;52.466;-1.016;2023-03-23T15:13:18;97999.38;;;14.45;61.78
65718;BME280;52445;52.466;-1.016;2023-03-23T15:15:44;97993.09;;;14.31;61.89
65718;BME280;52445;52.466;-1.016;2023-03-23T15:18:27;98001.06;;;14.28;61.62
65718;BME280;52445;52.466;-1.016;2023-03-23T15:20:54;97994.97;;;14.29;62.15
65718;BME280;52445;52.466;-1.016;2023-03-23T15:23:26;97990.56;;;14.30;62.25